Time,TemperatureF,DewpointF,PressureIn,WindDirection,WindDirectionDegrees,WindSpeedMPH,WindSpeedGustMPH,Humidity,HourlyPrecipIn,Conditions,Clouds,dailyrainin,SoftwareType,DateUTC
2013-02-21 00:00:00,44.2,38.8,30.05,NW,305,0.0,3.0,81,0.00,,CLR,0.00,VWS V14.00,2013-02-21 08:00:00,
2013-02-21 00:09:00,43.3,38.2,30.05,NW,305,0.0,0.0,82,0.00,,CLR,0.00,VWS V14.00,2013-02-21 08:09:00,
2013-02-21 00:19:00,42.5,37.7,30.05,NW,305,0.0,2.0,83,0.00,,CLR,0.00,VWS V14.00,2013-02-21 08:19:00,
2013-02-21 00:29:00,41.6,37.1,30.04,NW,305,3.0,6.0,84,0.00,,CLR,0.00,VWS V14.00,2013-02-21 08:29:00,
2013-02-21 00:39:00,42.0,38.1,30.05,NW,305,3.0,7.0,86,0.00,,CLR,0.00,VWS V14.00,2013-02-21 08:39:00,
2013-02-21 00:49:00,42.4,38.2,30.05,NW,305,0.0,3.0,85,0.00,,CLR,0.00,VWS V14.00,2013-02-21 08:49:00,
2013-02-21 00:59:00,42.0,37.5,30.05,NW,305,2.0,3.0,84,0.00,,CLR,0.00,VWS V14.00,2013-02-21 08:59:00,
2013-02-21 01:09:00,41.7,37.2,30.05,NW,305,0.0,4.0,84,0.00,,CLR,0.00,VWS V14.00,2013-02-21 09:09:00,
2013-02-21 01:19:00,41.5,37.0,30.05,NW,305,0.0,2.0,84,0.00,,CLR,0.00,VWS V14.00,2013-02-21 09:19:00,
2013-02-21 01:29:00,40.9,36.5,30.04,NW,305,0.0,2.0,84,0.00,,CLR,0.00,VWS V14.00,2013-02-21 09:29:00,
2013-02-21 01:39:00,40.6,36.5,30.03,NW,305,0.0,1.0,85,0.00,,CLR,0.00,VWS V14.00,2013-02-21 09:39:00,
2013-02-21 01:49:00,40.5,36.3,30.04,NW,305,0.0,4.0,85,0.00,,CLR,0.00,VWS V14.00,2013-02-21 09:49:00,
2013-02-21 01:59:00,40.4,36.5,30.05,NW,305,2.0,3.0,86,0.00,,CLR,0.00,VWS V14.00,2013-02-21 09:59:00,
2013-02-21 02:09:00,40.1,36.3,30.04,NW,305,4.0,5.0,86,0.00,,CLR,0.00,VWS V14.00,2013-02-21 10:09:00,
2013-02-21 02:19:00,40.1,36.3,30.05,NW,305,2.0,6.0,86,0.00,,CLR,0.00,VWS V14.00,2013-02-21 10:19:00,
2013-02-21 02:29:00,40.4,36.8,30.04,NW,305,3.0,6.0,87,0.00,,CLR,0.00,VWS V14.00,2013-02-21 10:29:00,
2013-02-21 02:39:00,40.6,37.0,30.04,NW,305,0.0,5.0,87,0.00,,CLR,0.00,VWS V14.00,2013-02-21 10:39:00,
2013-02-21 02:49:00,40.6,37.0,30.03,NW,305,1.0,5.0,87,0.00,,CLR,0.00,VWS V14.00,2013-02-21 10:49:00,
2013-02-21 02:59:00,40.1,36.5,30.04,NW,305,0.0,3.0,87,0.00,,CLR,0.00,VWS V14.00,2013-02-21 10:59:00,
2013-02-21 03:09:00,39.6,36.1,30.03,NW,305,0.0,1.0,87,0.00,,CLR,0.00,VWS V14.00,2013-02-21 11:09:00,
2013-02-21 03:19:00,39.3,35.8,30.03,NW,305,0.0,0.0,87,0.00,,CLR,0.00,VWS V14.00,2013-02-21 11:19:00,
2013-02-21 03:29:00,39.2,35.7,30.03,NW,305,0.0,0.0,87,0.00,,CLR,0.00,VWS V14.00,2013-02-21 11:29:00,
2013-02-21 03:39:00,39.3,36.0,30.02,NW,305,0.0,0.0,88,0.00,,CLR,0.00,VWS V14.00,2013-02-21 11:39:00,
2013-02-21 03:49:00,38.8,35.3,30.02,NW,305,0.0,0.0,87,0.00,,CLR,0.00,VWS V14.00,2013-02-21 11:49:00,
2013-02-21 03:59:00,38.4,34.9,30.02,NW,305,0.0,3.0,87,0.00,,CLR,0.00,VWS V14.00,2013-02-21 11:59:00,
2013-02-21 04:09:00,38.8,35.6,30.02,NW,305,0.0,2.0,88,0.00,,CLR,0.00,VWS V14.00,2013-02-21 12:09:00,
2013-02-21 04:19:00,38.7,35.5,30.03,NW,305,2.0,5.0,88,0.00,,CLR,0.00,VWS V14.00,2013-02-21 12:19:00,
2013-02-21 04:29:00,39.2,36.0,30.02,NW,305,0.0,3.0,88,0.00,,CLR,0.00,VWS V14.00,2013-02-21 12:29:00,
2013-02-21 04:39:00,39.2,36.0,30.02,NW,305,0.0,1.0,88,0.00,,CLR,0.00,VWS V14.00,2013-02-21 12:39:00,
2013-02-21 04:49:00,38.4,34.9,30.02,NW,305,0.0,2.0,87,0.00,,CLR,0.00,VWS V14.00,2013-02-21 12:49:00,
2013-02-21 04:59:00,37.8,34.6,30.03,NW,305,0.0,2.0,88,0.00,,CLR,0.00,VWS V14.00,2013-02-21 12:59:00,
2013-02-21 05:09:00,37.5,34.3,30.02,NW,305,0.0,2.0,88,0.00,,CLR,0.00,VWS V14.00,2013-02-21 13:09:00,
2013-02-21 05:19:00,37.0,33.8,30.02,NW,305,0.0,1.0,88,0.00,,CLR,0.00,VWS V14.00,2013-02-21 13:19:00,
2013-02-21 05:29:00,37.3,34.4,30.02,NW,305,1.0,2.0,89,0.00,,CLR,0.00,VWS V14.00,2013-02-21 13:29:00,
2013-02-21 05:39:00,38.0,35.0,30.02,NW,305,0.0,3.0,89,0.00,,CLR,0.00,VWS V14.00,2013-02-21 13:39:00,
2013-02-21 05:49:00,37.5,34.6,30.02,NW,305,0.0,0.0,89,0.00,,CLR,0.00,VWS V14.00,2013-02-21 13:49:00,
2013-02-21 05:59:00,37.0,34.1,30.02,NW,305,2.0,2.0,89,0.00,,CLR,0.00,VWS V14.00,2013-02-21 13:59:00,
2013-02-21 06:09:00,36.8,33.9,30.02,NW,305,0.0,3.0,89,0.00,,CLR,0.00,VWS V14.00,2013-02-21 14:09:00,
2013-02-21 06:19:00,36.6,33.7,30.02,NW,305,0.0,0.0,89,0.00,,CLR,0.00,VWS V14.00,2013-02-21 14:19:00,
2013-02-21 06:29:00,36.6,33.7,30.03,NW,305,0.0,2.0,89,0.00,,CLR,0.00,VWS V14.00,2013-02-21 14:29:00,
2013-02-21 06:39:00,36.8,34.2,30.03,NW,305,0.0,0.0,90,0.00,,CLR,0.00,VWS V14.00,2013-02-21 14:39:00,
2013-02-21 06:50:00,37.0,34.3,30.03,NW,305,0.0,2.0,90,0.00,,CLR,0.00,VWS V14.00,2013-02-21 14:50:00,
2013-02-21 06:59:00,37.0,34.3,30.02,NW,305,2.0,6.0,90,0.00,,CLR,0.00,VWS V14.00,2013-02-21 14:59:00,
2013-02-21 07:09:00,37.5,34.8,30.03,NW,305,0.0,3.0,90,0.00,,CLR,0.00,VWS V14.00,2013-02-21 15:09:00,
2013-02-21 07:19:00,38.1,35.4,30.04,NW,305,0.0,2.0,90,0.00,,CLR,0.00,VWS V14.00,2013-02-21 15:19:00,
2013-02-21 07:29:00,38.2,35.5,30.05,NW,305,0.0,4.0,90,0.00,,CLR,0.00,VWS V14.00,2013-02-21 15:29:00,
2013-02-21 07:39:00,39.0,36.3,30.06,NW,305,0.0,5.0,90,0.00,,CLR,0.00,VWS V14.00,2013-02-21 15:39:00,
2013-02-21 07:49:00,41.1,38.7,30.07,NW,306,0.0,7.0,91,0.00,,CLR,0.00,VWS V14.00,2013-02-21 15:49:00,
2013-02-21 08:00:00,41.5,38.8,30.07,NW,306,4.0,6.0,90,0.00,,CLR,0.00,VWS V14.00,2013-02-21 16:00:00,
2013-02-21 08:09:00,42.1,39.1,30.08,NNE,30,0.0,3.0,89,0.00,,CLR,0.00,VWS V14.00,2013-02-21 16:09:00,
2013-02-21 08:19:00,42.8,39.8,30.07,NNE,30,1.0,1.0,89,0.00,,CLR,0.00,VWS V14.00,2013-02-21 16:19:00,
2013-02-21 08:29:00,43.5,40.2,30.07,NNE,30,0.0,2.0,88,0.00,,CLR,0.00,VWS V14.00,2013-02-21 16:29:00,
2013-02-21 08:40:00,44.9,41.6,30.07,NNE,30,0.0,1.0,88,0.00,,CLR,0.00,VWS V14.00,2013-02-21 16:40:00,
2013-02-21 08:49:00,46.4,41.5,30.06,NNE,30,0.0,1.0,83,0.00,,CLR,0.00,VWS V14.00,2013-02-21 16:49:00,
2013-02-21 08:59:00,48.4,42.5,30.06,NNE,32,1.0,3.0,80,0.00,,CLR,0.00,VWS V14.00,2013-02-21 16:59:00,
2013-02-21 09:09:00,50.0,43.1,30.06,NNE,32,4.0,4.0,77,0.00,,BKN080,0.00,VWS V14.00,2013-02-21 17:09:00,
2013-02-21 09:19:00,50.9,41.8,30.06,NNE,21,2.0,6.0,71,0.00,,BKN080,0.00,VWS V14.00,2013-02-21 17:19:00,
2013-02-21 09:29:00,51.7,41.5,30.06,NW,317,7.0,11.0,68,0.00,,BKN080,0.00,VWS V14.00,2013-02-21 17:29:00,
2013-02-21 09:39:00,52.3,41.7,30.06,NW,304,6.0,10.0,67,0.00,,SCT080,0.00,VWS V14.00,2013-02-21 17:39:00,
2013-02-21 09:49:00,52.2,41.6,30.06,NW,316,11.0,12.0,67,0.00,,SCT080,0.00,VWS V14.00,2013-02-21 17:49:00,
2013-02-21 09:59:00,53.1,40.8,30.06,NNE,17,0.0,11.0,63,0.00,,SCT080,0.00,VWS V14.00,2013-02-21 17:59:00,
2013-02-21 10:09:00,54.1,41.4,30.06,NW,324,5.0,11.0,62,0.00,,SCT080,0.00,VWS V14.00,2013-02-21 18:09:00,
2013-02-21 10:19:00,54.6,41.4,30.06,NW,314,7.0,12.0,61,0.00,,SCT080,0.00,VWS V14.00,2013-02-21 18:19:00,
2013-02-21 10:29:00,55.2,41.1,30.06,NNE,28,5.0,10.0,59,0.00,,SCT080,0.00,VWS V14.00,2013-02-21 18:29:00,
2013-02-21 10:39:00,55.4,41.3,30.06,NNW,333,4.0,11.0,59,0.00,,CLR,0.00,VWS V14.00,2013-02-21 18:39:00,
2013-02-21 10:49:00,55.7,41.6,30.06,NNE,14,9.0,10.0,59,0.00,,CLR,0.00,VWS V14.00,2013-02-21 18:49:00,
2013-02-21 11:00:00,56.3,41.3,30.06,NNE,22,3.0,9.0,57,0.00,,CLR,0.00,VWS V14.00,2013-02-21 19:00:00,
2013-02-21 11:10:00,56.4,41.8,30.05,North,360,1.0,11.0,58,0.00,,CLR,0.00,VWS V14.00,2013-02-21 19:10:00,
2013-02-21 11:19:00,56.2,39.8,30.05,WNW,301,5.0,12.0,54,0.00,,CLR,0.00,VWS V14.00,2013-02-21 19:19:00,
2013-02-21 11:30:00,56.9,42.3,30.05,NE,37,3.0,9.0,58,0.00,,CLR,0.00,VWS V14.00,2013-02-21 19:30:00,
2013-02-21 11:40:00,57.7,43.5,30.05,NE,43,10.0,13.0,59,0.00,,SCT036,0.00,VWS V14.00,2013-02-21 19:40:00,
2013-02-21 11:50:00,58.4,43.7,30.05,NE,48,3.0,12.0,58,0.00,,SCT036,0.00,VWS V14.00,2013-02-21 19:50:00,
2013-02-21 12:00:00,58.6,42.5,30.05,ENE,63,3.0,11.0,55,0.00,,SCT036,0.00,VWS V14.00,2013-02-21 20:00:00,
2013-02-21 12:10:00,58.3,43.6,30.04,NE,44,6.0,7.0,58,0.00,,SCT036,0.00,VWS V14.00,2013-02-21 20:10:00,
2013-02-21 12:20:00,59.4,44.2,30.04,NNE,30,2.0,10.0,57,0.00,,SCT036,0.00,VWS V14.00,2013-02-21 20:20:00,
2013-02-21 12:30:00,60.4,42.7,30.04,NNE,28,2.0,9.0,52,0.00,,SCT036,0.00,VWS V14.00,2013-02-21 20:30:00,
2013-02-21 12:40:00,59.7,41.6,30.03,North,350,3.0,7.0,51,0.00,,SCT036,0.00,VWS V14.00,2013-02-21 20:40:00,
2013-02-21 12:50:00,60.4,42.2,30.03,NE,42,4.0,10.0,51,0.00,,SCT036,0.00,VWS V14.00,2013-02-21 20:50:00,
2013-02-21 13:00:00,60.7,43.0,30.03,NNE,28,2.0,11.0,52,0.00,,SCT036,0.00,VWS V14.00,2013-02-21 21:00:00,
2013-02-21 13:10:00,60.6,41.4,30.03,NE,38,1.0,14.0,49,0.00,,SCT036,0.00,VWS V14.00,2013-02-21 21:10:00,
2013-02-21 13:20:00,60.1,42.9,30.03,WNW,294,4.0,12.0,53,0.00,,SCT036,0.00,VWS V14.00,2013-02-21 21:20:00,
2013-02-21 13:29:00,60.6,43.9,30.03,NW,304,3.0,15.0,54,0.00,,SCT036,0.00,VWS V14.00,2013-02-21 21:29:00,
2013-02-21 13:40:00,60.7,44.0,30.03,WNW,302,6.0,14.0,54,0.00,,CLR,0.00,VWS V14.00,2013-02-21 21:40:00,
2013-02-21 13:50:00,60.1,44.4,30.03,WNW,302,6.0,16.0,56,0.00,,CLR,0.00,VWS V14.00,2013-02-21 21:50:00,
2013-02-21 14:00:00,59.9,43.7,30.02,WNW,299,12.0,20.0,55,0.00,,CLR,0.00,VWS V14.00,2013-02-21 22:00:00,
2013-02-21 14:09:00,59.4,44.2,30.03,WNW,295,14.0,21.0,57,0.00,,CLR,0.00,VWS V14.00,2013-02-21 22:09:00,
2013-02-21 14:20:00,59.0,44.3,30.03,NW,306,16.0,18.0,58,0.00,,CLR,0.00,VWS V14.00,2013-02-21 22:20:00,
2013-02-21 14:29:00,59.5,43.8,30.03,WNW,300,17.0,18.0,56,0.00,,CLR,0.00,VWS V14.00,2013-02-21 22:29:00,
2013-02-21 14:39:00,59.0,44.7,30.03,NW,306,11.0,19.0,59,0.00,,SCT070,0.00,VWS V14.00,2013-02-21 22:39:00,
2013-02-21 14:50:00,59.0,43.8,30.03,NW,326,12.0,19.0,57,0.00,,SCT070,0.00,VWS V14.00,2013-02-21 22:50:00,
2013-02-21 15:00:00,58.2,44.0,30.03,NW,306,16.0,18.0,59,0.00,,SCT070,0.00,VWS V14.00,2013-02-21 23:00:00,
2013-02-21 15:09:00,57.6,42.5,30.04,WNW,297,12.0,17.0,57,0.00,,SCT070,0.00,VWS V14.00,2013-02-21 23:09:00,
2013-02-21 15:19:00,55.7,42.0,30.04,NW,306,17.0,18.0,60,0.00,,SCT070,0.00,VWS V14.00,2013-02-21 23:19:00,
2013-02-21 15:29:00,55.7,42.5,30.04,NW,317,11.0,17.0,61,0.00,,SCT070,0.00,VWS V14.00,2013-02-21 23:29:00,
2013-02-21 15:39:00,55.1,42.3,30.04,WNW,297,7.0,14.0,62,0.00,,BKN070,0.00,VWS V14.00,2013-02-21 23:39:00,
2013-02-21 15:50:00,56.3,43.0,30.04,NW,304,5.0,11.0,61,0.00,,BKN070,0.00,VWS V14.00,2013-02-21 23:50:00,
2013-02-21 16:00:00,57.3,42.7,30.04,NW,306,12.0,19.0,58,0.00,,BKN070,0.00,VWS V14.00,2013-02-22 00:00:00,
2013-02-21 16:10:00,58.0,42.4,30.04,WNW,298,10.0,15.0,56,0.00,,BKN070,0.00,VWS V14.00,2013-02-22 00:10:00,
2013-02-21 16:19:00,57.8,43.1,30.04,NW,314,10.0,18.0,58,0.00,,BKN070,0.00,VWS V14.00,2013-02-22 00:19:00,
2013-02-21 16:29:00,56.8,43.1,30.05,NW,319,11.0,20.0,60,0.00,,BKN070,0.00,VWS V14.00,2013-02-22 00:29:00,
2013-02-21 16:39:00,56.3,42.6,30.05,NW,311,9.0,16.0,60,0.00,,SCT060,0.00,VWS V14.00,2013-02-22 00:39:00,
2013-02-21 16:50:00,55.7,44.5,30.06,NW,321,14.0,16.0,66,0.00,,SCT060,0.00,VWS V14.00,2013-02-22 00:50:00,
2013-02-21 17:00:00,54.8,44.1,30.06,NW,309,15.0,17.0,67,0.00,,SCT060,0.00,VWS V14.00,2013-02-22 01:00:00,
2013-02-21 17:10:00,52.8,42.9,30.06,NW,309,7.0,14.0,69,0.00,,SCT060,0.00,VWS V14.00,2013-02-22 01:10:00,
2013-02-21 17:19:00,51.7,42.6,30.06,WNW,303,4.0,12.0,71,0.00,,SCT060,0.00,VWS V14.00,2013-02-22 01:19:00,
2013-02-21 17:29:00,51.2,42.1,30.06,NW,306,9.0,11.0,71,0.00,,SCT060,0.00,VWS V14.00,2013-02-22 01:29:00,
2013-02-21 17:40:00,50.7,41.7,30.06,NW,304,6.0,11.0,71,0.00,,SCT060,0.00,VWS V14.00,2013-02-22 01:40:00,
2013-02-21 17:49:00,50.4,41.4,30.07,NW,304,5.0,10.0,71,0.00,,SCT060,0.00,VWS V14.00,2013-02-22 01:49:00,
2013-02-21 18:00:00,50.1,41.1,30.07,NW,317,6.0,8.0,71,0.00,,SCT060,0.00,VWS V14.00,2013-02-22 02:00:00,
2013-02-21 18:09:00,49.5,40.9,30.08,NW,304,3.0,10.0,72,0.00,,SCT060,0.00,VWS V14.00,2013-02-22 02:09:00,
2013-02-21 18:20:00,49.2,40.9,30.08,NW,309,1.0,8.0,73,0.00,,SCT060,0.00,VWS V14.00,2013-02-22 02:20:00,
2013-02-21 18:29:00,49.0,40.7,30.09,NW,308,3.0,7.0,73,0.00,,SCT060,0.00,VWS V14.00,2013-02-22 02:29:00,
2013-02-21 18:40:00,48.5,40.6,30.09,NW,307,4.0,6.0,74,0.00,,FEW060,0.00,VWS V14.00,2013-02-22 02:40:00,
2013-02-21 18:49:00,48.1,40.2,30.09,NW,307,0.0,4.0,74,0.00,,FEW060,0.00,VWS V14.00,2013-02-22 02:49:00,
2013-02-21 19:00:00,47.5,40.3,30.10,NW,307,4.0,5.0,76,0.00,,FEW060,0.00,VWS V14.00,2013-02-22 03:00:00,
2013-02-21 19:09:00,47.2,40.4,30.10,NW,306,4.0,6.0,77,0.00,,FEW060,0.00,VWS V14.00,2013-02-22 03:09:00,
2013-02-21 19:19:00,47.1,40.3,30.10,WNW,300,7.0,8.0,77,0.00,,FEW060,0.00,VWS V14.00,2013-02-22 03:19:00,
2013-02-21 19:29:00,47.1,40.6,30.10,WNW,296,0.0,7.0,78,0.00,,FEW060,0.00,VWS V14.00,2013-02-22 03:29:00,
2013-02-21 19:39:00,46.7,39.9,30.10,WNW,296,3.0,5.0,77,0.00,,CLR,0.00,VWS V14.00,2013-02-22 03:39:00,
2013-02-21 19:50:00,46.0,39.5,30.10,WNW,296,0.0,6.0,78,0.00,,CLR,0.00,VWS V14.00,2013-02-22 03:50:00,
2013-02-21 19:59:00,45.6,39.2,30.10,WNW,296,0.0,3.0,78,0.00,,CLR,0.00,VWS V14.00,2013-02-22 03:59:00,
2013-02-21 20:10:00,45.4,39.3,30.10,WNW,296,1.0,3.0,79,0.00,,CLR,0.00,VWS V14.00,2013-02-22 04:10:00,
2013-02-21 20:20:00,45.3,38.9,30.11,WNW,296,0.0,2.0,78,0.00,,CLR,0.00,VWS V14.00,2013-02-22 04:20:00,
2013-02-21 20:30:00,44.9,38.5,30.11,WNW,296,0.0,3.0,78,0.00,,CLR,0.00,VWS V14.00,2013-02-22 04:30:00,
2013-02-21 20:40:00,44.2,38.1,30.11,WNW,296,2.0,4.0,79,0.00,,CLR,0.00,VWS V14.00,2013-02-22 04:40:00,
2013-02-21 20:49:00,44.3,38.2,30.11,WNW,296,0.0,5.0,79,0.00,,CLR,0.00,VWS V14.00,2013-02-22 04:49:00,
2013-02-21 20:59:00,44.4,38.0,30.12,WNW,296,0.0,2.0,78,0.00,,CLR,0.00,VWS V14.00,2013-02-22 04:59:00,
2013-02-21 21:09:00,43.8,37.7,30.13,WNW,296,0.0,5.0,79,0.00,,CLR,0.00,VWS V14.00,2013-02-22 05:09:00,
2013-02-21 21:20:00,43.5,37.4,30.13,WNW,296,1.0,5.0,79,0.00,,CLR,0.00,VWS V14.00,2013-02-22 05:20:00,
2013-02-21 21:29:00,43.7,37.6,30.13,WNW,296,0.0,5.0,79,0.00,,CLR,0.00,VWS V14.00,2013-02-22 05:29:00,
2013-02-21 21:41:00,43.5,36.8,30.13,WNW,296,2.0,5.0,77,0.00,,CLR,0.00,VWS V14.00,2013-02-22 05:41:00,
2013-02-21 21:49:00,42.9,36.8,30.13,WNW,296,2.0,6.0,79,0.00,,CLR,0.00,VWS V14.00,2013-02-22 05:49:00,
2013-02-21 21:59:00,43.0,36.9,30.13,WNW,296,2.0,3.0,79,0.00,,CLR,0.00,VWS V14.00,2013-02-22 05:59:00,
2013-02-21 22:09:00,43.3,36.9,30.13,WNW,296,0.0,6.0,78,0.00,,CLR,0.00,VWS V14.00,2013-02-22 06:09:00,
2013-02-21 22:19:00,43.3,36.6,30.14,WNW,296,0.0,3.0,77,0.00,,CLR,0.00,VWS V14.00,2013-02-22 06:19:00,
2013-02-21 22:29:00,42.1,35.8,30.14,WNW,296,0.0,4.0,78,0.00,,CLR,0.00,VWS V14.00,2013-02-22 06:29:00,
2013-02-21 22:39:00,42.0,36.3,30.14,WNW,296,0.0,5.0,80,0.00,,CLR,0.00,VWS V14.00,2013-02-22 06:39:00,
2013-02-21 22:49:00,41.8,35.8,30.14,WNW,296,1.0,3.0,79,0.00,,CLR,0.00,VWS V14.00,2013-02-22 06:49:00,
2013-02-21 22:59:00,41.4,36.0,30.14,WNW,296,0.0,3.0,81,0.00,,CLR,0.00,VWS V14.00,2013-02-22 06:59:00,
2013-02-21 23:09:00,41.4,35.7,30.14,WNW,296,0.0,3.0,80,0.00,,CLR,0.00,VWS V14.00,2013-02-22 07:09:00,
2013-02-21 23:19:00,41.1,35.4,30.14,WNW,296,0.0,3.0,80,0.00,,CLR,0.00,VWS V14.00,2013-02-22 07:19:00,
2013-02-21 23:30:00,41.1,35.7,30.14,WNW,296,0.0,2.0,81,0.00,,CLR,0.00,VWS V14.00,2013-02-22 07:30:00,
2013-02-21 23:39:00,40.9,35.5,30.14,WNW,296,0.0,2.0,81,0.00,,CLR,0.00,VWS V14.00,2013-02-22 07:39:00,
2013-02-21 23:49:00,41.1,35.7,30.15,WNW,296,0.0,2.0,81,0.00,,CLR,0.00,VWS V14.00,2013-02-22 07:49:00,